Tiempo atmosférico en la estación meteorológica de León Aeropuerto, León (916 m.)



Fecha
DESCASC
Temp. máxima en grados centígrados (hora)
DESCASC
Temp. mínima en grados centígrados (hora)
DESCASC
Temp. media en grados centígrados
DESCASC
Racha de viento máxima en m/sg (hora)
DESCASC
Velocidad máxima media en intervalos de 10 minutos(hora)
DESCASC
Precipitaciones diarias en mm
DESCASC
Precipitaciones de 00:00 a 06:00 en mm
DESCASC
Precipitaciones de 06:00 a 12:00 en mm
DESCASC
Precipitaciones de 12:00 a 18:00 en mm
DESCASC
Precipitaciones de 18:00 a 24:00 en mm
DESCASC

Gráficas

Temp. máximas Temp. mínimas Temp. medias Precipitaciones Rachas de viento máximas Velocidades máximas media en intervalos de 10 minutos

Datos horarios

Fecha y hora oficial Temperatura (ºC) Velocidad del viento (km/h) Dirección del viento Racha (km/h) Dirección de racha Precipitación (mm) Presión (hPa) Tendencia (hPa) Humedad (%)
2020-01-24 23:00:00 4.2 6 Noroeste -- -- 0 912.8 -0.2 96
2020-01-24 22:00:00 4.5 3 Norte 5 Norte 0 913.2 0.3 94
2020-01-24 21:00:00 4.5 5 Norte 8 Norte 0 913.2 0.5 94
2020-01-24 20:00:00 4.5 5 Norte 8 Nordeste 0 913 0.4 92
2020-01-24 19:00:00 4.8 0 Calma 8 Noroeste 0 912.9 0.1 92
2020-01-24 18:00:00 5.2 3 Oeste 5 Noroeste 0 912.7 -0.5 89
2020-01-24 17:00:00 5.1 0 Calma 5 Nordeste 0 912.6 -1.1 89
2020-01-24 16:00:00 5.1 5 Este 9 Sudeste 0.1 912.8 -1.4 88
2020-01-24 15:00:00 5.4 8 Sudeste 13 Sur 0.2 913.2 -1.3 87
2020-01-24 14:00:00 5.7 8 Sudeste 13 Sur 0 913.7 -0.6 80
2020-01-24 13:00:00 6.1 6 Sur 13 Sudeste 0 914.2 0.2 75
2020-01-24 12:00:00 5.3 9 Este 11 Este 0 914.5 1 79
2020-01-24 11:00:00 5 5 Sudeste -- -- 0 914.3 0.9 80
2020-01-24 10:00:00 4.3 2 Nordeste 5 Norte 0 914 0.9 85
2020-01-24 09:00:00 3.9 0 Calma 8 Norte 0 913.5 0.5 84
2020-01-24 08:00:00 3.7 6 Nordeste 8 Nordeste 0 913.4 0.3 86
2020-01-24 07:00:00 3.6 5 Norte 8 Norte 0 913.1 -0.2 85
2020-01-24 06:00:00 3.7 6 Nordeste 9 Nordeste 0 913 -0.3 82
2020-01-24 05:00:00 3.3 4 Nordeste 8 Norte 0 913.1 -0.3 85
2020-01-24 04:00:00 2.8 4 Norte 9 Norte 0 913.3 0 82
2020-01-24 03:00:00 3.4 6 Norte 11 Norte 0 913.3 -0.1 82
2020-01-24 02:00:00 -- 8 Norte 9 Norte 0 913.4 0 --
2020-01-24 01:00:00 3.2 4 Nordeste 11 Norte 0 913.3 0.3 82
2020-01-24 00:00:00 3.4 7 Norte 11 Norte 0 913.4 0.8 82
2020-01-23 23:00:00 2.6 10 Norte 13 Norte 0 913.4 1.2 85
2020-01-23 22:00:00 2.1 6 Norte 11 Norte 0 913 1.2 84
2020-01-23 21:00:00 1.5 9 Norte 11 Norte 0 912.6 1.3 85
2020-01-23 20:00:00 2.5 5 Noroeste 8 Noroeste 0 912.2 1.2 80
2020-01-23 19:00:00 5 5 Sudoeste -- -- 0 911.8 0.3 73
2020-01-23 18:00:00 7.4 4 Sur 11 Sudeste 0 911.3 -0.5 64
2020-01-23 17:00:00 8.7 7 Sur 15 Sudeste 0 911 -1.6 59
2020-01-23 16:00:00 8.2 8 Este 15 Este 0 911.5 -1.6 62
2020-01-23 15:00:00 7 8 Sudeste 15 Este 0 911.8 -2 66
2020-01-23 14:00:00 6.4 9 Este 21 Este 0 912.6 -1 70
2020-01-23 13:00:00 5.1 10 Nordeste 17 Nordeste 0 913.1 0 75
2020-01-23 12:00:00 4 11 Este 17 Este 0 913.8 1 79
2020-01-23 11:00:00 2.5 8 Este 13 Este 0 913.6 1 82
2020-01-23 10:00:00 0.5 11 Norte 17 Norte 0 913.1 1.1 92
2020-01-23 09:00:00 -0.7 9 Norte 13 Norte 0 912.8 0.9 91
2020-01-23 08:00:00 -1.3 9 Norte 13 Norte 0 912.6 0.3 90
2020-01-23 07:00:00 -0.6 5 Noroeste 11 Norte 0 912 -0.6 90
2020-01-23 06:00:00 -0.1 6 Norte 11 Norte 0 911.9 -0.8 89
2020-01-23 05:00:00 0.2 5 Nordeste 13 Norte 0 912.3 -0.7 90
2020-01-23 04:00:00 0.1 8 Norte 17 Nordeste 0 912.6 -1 90
2020-01-23 03:00:00 0.4 10 Norte 17 Norte 0 912.7 -0.8 91
2020-01-23 02:00:00 0.6 11 Norte 15 Nordeste 0 913 -0.4 85
2020-01-23 01:00:00 1.9 11 Nordeste 15 Nordeste 0 913.6 0.4 83
2020-01-23 00:00:00 2.4 8 Nordeste 15 Nordeste 0 913.5 0.5 81
2020-01-22 23:00:00 3.1 5 Este 15 Este 0 913.4 0.8 79
2020-01-22 22:00:00 2 5 Norte 11 Este 0 913.2 0.8 80
2020-01-22 21:00:00 3.4 7 Este 9 Sudeste 0 913 0.8 77
2020-01-22 20:00:00 4.6 5 Norte 11 Este 0 912.6 0.2 72
2020-01-22 19:00:00 6 8 Este 11 Este 0 912.4 -0.5 69
2020-01-22 18:00:00 7.1 8 Este 11 Este 0 912.2 -1.3 62
2020-01-22 17:00:00 7.5 9 Este 18 Este 0 912.4 -2 56
2020-01-22 16:00:00 7.8 16 Este 26 Nordeste 0 912.9 -2.4 57
2020-01-22 15:00:00 7.6 18 Nordeste 28 Este 0 913.5 -2.1 68
2020-01-22 14:00:00 7.3 9 Nordeste 13 Norte 0 914.4 -1.3 76
2020-01-22 13:00:00 6.1 8 Norte 15 Norte 0 915.3 -0.5 82
2020-01-22 12:00:00 5 9 Norte 18 Norte 0 915.6 0.8 87
2020-01-22 11:00:00 4.4 10 Norte 21 Nordeste 0.3 915.7 0.9 89
2020-01-22 10:00:00 4.7 15 Este 30 Este 0.8 915.8 1.1 83
2020-01-22 09:00:00 4.9 13 Nordeste 18 Nordeste 0 914.8 -0.1 76
2020-01-22 08:00:00 5.4 14 Nordeste 26 Este 0.1 914.8 0.2 71
2020-01-22 07:00:00 4.2 12 Nordeste 17 Nordeste 0 914.7 0.1 72
2020-01-22 06:00:00 5.1 13 Nordeste 48 Nordeste 0 914.9 0.1 66
2020-01-22 05:00:00 6.2 32 Nordeste 50 Nordeste 0 914.6 -1.2 61
2020-01-22 04:00:00 5 17 Norte 26 Norte 0 914.6 -1.6 66
2020-01-22 03:00:00 5.6 20 Nordeste 48 Nordeste 0 914.8 -1.4 62
2020-01-22 02:00:00 5.6 30 Nordeste 41 Nordeste 0 915.8 -0.3 60
2020-01-22 01:00:00 4 12 Norte 33 Norte 0 916.2 0.3 65
2020-01-22 00:00:00 4.1 17 Norte 35 Norte 0 916.2 0.2 65
2020-01-21 23:00:00 5.7 19 Nordeste 41 Nordeste 0 916.1 -0.1 55
2020-01-21 22:00:00 5.5 22 Nordeste 37 Norte 0 915.9 0.2 59
2020-01-21 21:00:00 5.7 18 Norte 39 Nordeste 0 916 -0.2 60
2020-01-21 20:00:00 5.1 17 Nordeste 32 Norte 0 916.2 0.5 64
2020-01-21 19:00:00 5.3 19 Norte 54 Nordeste 0.2 915.7 0.1 65
2020-01-21 18:00:00 6.5 32 Nordeste 50 Nordeste 0 916.2 0.5 60
2020-01-21 17:00:00 7.3 35 Nordeste 46 Nordeste 0 915.7 -0.8 60
2020-01-21 16:00:00 8 34 Nordeste 52 Nordeste 0 915.6 -2.6 56
2020-01-21 15:00:00 8.4 27 Nordeste 42 Nordeste 0 915.7 -2.4 58
2020-01-21 14:00:00 5.5 19 Norte 42 Nordeste 0.3 916.5 -1.8 71
2020-01-21 13:00:00 4.7 31 Nordeste 50 Nordeste 0.1 918.2 -0.8 67
2020-01-21 12:00:00 6.6 27 Nordeste 46 Nordeste 0 918.1 -1.4 50
2020-01-21 11:00:00 5.1 33 Nordeste 48 Nordeste 0 918.3 -0.9 54
2020-01-21 10:00:00 2.8 27 Nordeste 45 Norte 0 919 -0.4 62
2020-01-21 09:00:00 0.6 14 Norte 32 Norte 0 919.5 -0.2 73
2020-01-21 08:00:00 0.9 20 Norte 32 Norte 0 919.2 -0.6 72
2020-01-21 07:00:00 1.3 16 Norte 37 Norte 0 919.4 -1.1 69
2020-01-21 06:00:00 0.2 12 Norte 22 Norte 0 919.7 -1.4 73
2020-01-21 05:00:00 0.7 16 Norte 32 Norte 0 919.8 -1.5 71
2020-01-21 04:00:00 0.4 17 Norte 30 Norte 0 920.5 -1.3 73
2020-01-21 03:00:00 0.2 14 Norte 33 Norte 0 921.1 -0.7 72
2020-01-21 02:00:00 0 17 Norte 30 Norte 0 921.3 -0.5 72
2020-01-21 01:00:00 -0.1 12 Norte 22 Norte 0 921.8 0.1 72
2020-01-21 00:00:00 0 13 Norte 21 Norte 0 921.8 0.2 69
2020-01-20 23:00:00 0.4 14 Norte 32 Norte 0 921.8 0.5 67
2020-01-20 22:00:00 0.9 18 Norte 30 Norte 0 921.7 0.6 65
2020-01-20 21:00:00 1 17 Norte 33 Norte 0 921.6 0.6 62
2020-01-20 20:00:00 0.5 17 Norte 30 Norte 0 921.3 0.3 59
2020-01-20 19:00:00 0.7 16 Norte 30 Norte 0 921.1 0.2 58
2020-01-20 18:00:00 2 19 Norte 30 Norte 0 921 0 52
2020-01-20 17:00:00 2.5 19 Norte 35 Norte 0 921 -0.2 51
2020-01-20 16:00:00 4 24 Nordeste 37 Nordeste 0 920.9 -1.3 43
2020-01-20 15:00:00 5.1 26 Nordeste 50 Nordeste 0 921 -2.3 30
2020-01-20 14:00:00 4.9 32 Nordeste 59 Nordeste 0 921.2 -1.6 32
2020-01-20 13:00:00 4 40 Nordeste 61 Nordeste 0 922.2 0.2 30
2020-01-20 12:00:00 3.3 36 Nordeste 61 Nordeste 0 923.3 1.3 31
2020-01-20 11:00:00 2.5 32 Nordeste 52 Nordeste 0 922.8 0.9 40
2020-01-20 10:00:00 1 37 Nordeste 52 Nordeste 0 922 -0.3 52
2020-01-20 09:00:00 0.5 34 Nordeste 46 Nordeste 0 922 0.1 52
2020-01-20 08:00:00 0.2 25 Nordeste 33 Nordeste 0 921.9 0.1 50
2020-01-20 07:00:00 0.7 22 Nordeste 41 Nordeste 0 922.3 -1 53
2020-01-20 06:00:00 0 26 Norte 46 Norte 0 921.9 -2 59
2020-01-20 05:00:00 0.7 28 Norte 45 Norte 0 921.8 -2.7 54
2020-01-20 04:00:00 0.8 24 Norte 42 Nordeste 0 923.3 -1.5 51
2020-01-20 03:00:00 1 25 Norte 39 Norte 0 923.9 -0.4 53
2020-01-20 02:00:00 0.6 18 Norte 32 Norte 0 924.5 0.3 53
2020-01-20 01:00:00 0.9 17 Nordeste 46 Norte 0 924.8 0.3 60
2020-01-20 00:00:00 1.4 36 Norte 58 Nordeste 0 924.3 -0.2 56
2020-01-19 23:00:00 0.9 31 Nordeste 55 Nordeste 0 924.2 0.1 57
2020-01-19 22:00:00 1.5 37 Nordeste 54 Nordeste 0 924.5 0.6 54
2020-01-19 21:00:00 2 34 Nordeste 50 Nordeste 0 924.5 0.6 45
2020-01-19 20:00:00 1.6 23 Nordeste 48 Nordeste 0 924.1 0.5 45
2020-01-19 19:00:00 2.1 32 Nordeste 52 Nordeste 0 923.9 0.8 43
2020-01-19 18:00:00 3.3 30 Nordeste 58 Nordeste 0 923.9 1.2 41
2020-01-19 17:00:00 4.5 40 Nordeste 54 Este 0 923.6 0.6 38
2020-01-19 16:00:00 6 36 Nordeste 55 Nordeste 0 923.1 -0.2 39
2020-01-19 15:00:00 6.2 30 Norte 58 Nordeste 0 922.7 -0.4 40
2020-01-19 14:00:00 6.4 37 Norte 65 Norte 0 923 0.7 45
2020-01-19 13:00:00 6.4 42 Nordeste 68 Nordeste 0 923.3 2.1 43
2020-01-19 12:00:00 5.5 33 Norte 55 Norte 0 923.1 3 55
2020-01-19 11:00:00 4.6 32 Norte 55 Norte 0 922.3 3.3 52
2020-01-19 10:00:00 4 39 Norte 55 Norte 0 921.2 3.2 69
2020-01-19 09:00:00 2.2 19 Norte 35 Norte 0 920.1 2.9 75
2020-01-19 08:00:00 3.4 17 Norte 33 Norte 0 919 2.6 72
2020-01-19 07:00:00 4 21 Norte 45 Norte 0 918 1.5 74
2020-01-19 06:00:00 2.9 10 Nordeste 21 Nordeste 0 917.2 0.9 84
2020-01-19 05:00:00 1.6 10 Oeste 18 Noroeste 0 916.4 0.2 90
2020-01-19 04:00:00 0.3 14 Noroeste 18 Noroeste 0 916.5 0.7 95
2020-01-19 03:00:00 0.7 13 Oeste 21 Noroeste 0 916.3 0.8 95
2020-01-19 02:00:00 0.3 13 Noroeste 17 Noroeste 0 916.2 1.3 95
2020-01-19 01:00:00 0.7 4 Noroeste 13 Noroeste 0 915.8 1.6 94
2020-01-19 00:00:00 1 9 Oeste 13 Oeste 0 915.5 1.6 94
2020-01-18 23:00:00 0.8 9 Oeste 21 Oeste 0 914.9 1.2 92
2020-01-18 22:00:00 1.3 7 Oeste 18 Oeste 0 914.2 1.3 91
2020-01-18 21:00:00 1.4 13 Oeste 17 Oeste 0 913.9 1.2 89
2020-01-18 20:00:00 2.9 12 Noroeste 24 Noroeste 0 913.7 1.3 82
2020-01-18 19:00:00 3.7 16 Oeste 32 Oeste 0 912.9 1.4 85
2020-01-18 18:00:00 5 14 Oeste 41 Oeste 0.1 912.7 0.7 83
2020-01-18 17:00:00 6.6 23 Oeste 33 Oeste 0.9 912.4 -1.7 92
2020-01-18 16:00:00 4.9 11 Norte 18 Norte 0 911.5 -4.2 98
2020-01-18 15:00:00 5.8 8 Sudoeste 18 Sur 0 912 -5.4 98
2020-01-18 14:00:00 5.2 8 Sur 24 Sur 0 914.1 -4 100
2020-01-18 13:00:00 4.8 13 Sur 22 Sur 0 915.7 -3.5 100
2020-01-18 12:00:00 3.1 8 Este 13 Este 0 917.4 -1.9 100
2020-01-18 11:00:00 2.4 9 Este 11 Este 0 918.1 -1.8 99
2020-01-18 10:00:00 1.7 8 Nordeste 13 Nordeste 0.3 919.2 -1 98
2020-01-18 09:00:00 1.6 9 Nordeste 13 Nordeste 0.6 919.3 -1.5 94
2020-01-18 08:00:00 2.2 6 Nordeste 8 Nordeste 0.1 919.9 -1.6 85
2020-01-18 07:00:00 1.9 4 Norte 11 Nordeste 0 920.2 -1.6 86
2020-01-18 06:00:00 1.7 9 Norte 13 Norte 0 920.8 -1.4 87
2020-01-18 05:00:00 1.8 7 Norte 11 Norte 0 921.5 -1.3 85
2020-01-18 04:00:00 2 4 Norte 8 Nordeste 0 921.8 -1.3 84
2020-01-18 03:00:00 2 0 Calma 8 Norte 0 922.2 -1.4 85
2020-01-18 02:00:00 2.2 0 Calma 5 Este 0 922.8 -1.4 83
2020-01-18 01:00:00 2.1 7 Nordeste 9 Nordeste 0 923.1 -1 82
2020-01-18 00:00:00 2.1 8 Norte 15 Nordeste 0 923.6 -1 84
2020-01-17 23:00:00 2.4 4 Norte 8 Norte 0 924.2 -0.2 81
2020-01-17 22:00:00 2.6 5 Norte 13 Noroeste 0 924.1 0 80
2020-01-17 21:00:00 3.2 6 Oeste 17 Oeste 0 924.6 0.6 77
2020-01-17 20:00:00 3.2 10 Oeste 18 Oeste 0 924.4 0.8 76
2020-01-17 19:00:00 3.8 13 Oeste 22 Oeste 0 924.1 0.8 72
2020-01-17 18:00:00 4.6 17 Oeste 28 Oeste 0 924 1.2 69
2020-01-17 17:00:00 5.5 18 Oeste 35 Oeste 0 923.6 0.6 65
2020-01-17 16:00:00 6.1 25 Oeste 39 Oeste 0 923.3 0.5 62
2020-01-17 15:00:00 6.5 26 Oeste 41 Sudoeste 0 922.8 0 59
2020-01-17 14:00:00 6.5 27 Oeste 37 Oeste 0 923 0.8 69
2020-01-17 13:00:00 6.7 27 Oeste 41 Oeste 0 922.8 1.7 66
2020-01-17 12:00:00 5.8 24 Oeste 42 Oeste 0 922.8 2.3 69
2020-01-17 11:00:00 4.1 24 Oeste 39 Oeste 0 922.2 2.5 84
2020-01-17 10:00:00 3.3 19 Oeste 33 Oeste 0 921.1 2.3 88
2020-01-17 09:00:00 1.8 15 Oeste 30 Oeste 0 920.5 2.5 91
2020-01-17 08:00:00 2.4 22 Oeste 42 Oeste 0 919.7 2 86
2020-01-17 07:00:00 2.4 18 Oeste 26 Oeste 0 918.8 1.4 89
2020-01-17 06:00:00 3.5 15 Oeste 22 Oeste 0 918 0.8 90
2020-01-17 05:00:00 4.6 15 Oeste 30 Oeste 0.2 917.7 1 95
2020-01-17 04:00:00 4.7 11 Sudoeste 18 Sudoeste 0 917.4 0.8 97
2020-01-17 03:00:00 5.3 13 Sudoeste 21 Oeste 0.1 917.2 1 97
2020-01-17 02:00:00 5.4 9 Oeste 21 Sudoeste 0.1 916.7 1.5 96
2020-01-17 01:00:00 5.4 17 Sudoeste 30 Oeste 0 916.6 1.3 94
2020-01-17 00:00:00 5.6 22 Sudoeste 33 Sudoeste 0 916.2 0.9 93
2020-01-16 23:00:00 5.7 23 Sudoeste 35 Sudoeste 0 915.2 -0.3 94
2020-01-16 22:00:00 6.5 21 Sur 35 Sur 0.1 915.3 0.6 93
2020-01-16 21:00:00 6.8 22 Sur 32 Sur 0 915.3 1 86
2020-01-16 20:00:00 7.2 23 Sudoeste 39 Sudoeste 0 915.5 1.8 81
2020-01-16 19:00:00 7.8 13 Sur 37 Sur 0 914.7 0.5 76
2020-01-16 18:00:00 8.4 32 Sur 42 Sur 0 914.3 -0.2 74
2020-01-16 17:00:00 8.9 28 Sur 45 Sudoeste 0 913.7 -1.5 72
2020-01-16 16:00:00 9.2 29 Sur 58 Sudoeste 0 914.2 -2.3 72
2020-01-16 15:00:00 9.5 39 Sur 58 Sudoeste 0 914.5 -2.7 70
2020-01-16 14:00:00 9.5 31 Sur 48 Sudoeste 0 915.2 -1.9 72
2020-01-16 13:00:00 8.5 29 Sur 39 Sur 0 916.5 -0.2 86
2020-01-16 12:00:00 7.5 24 Sur 39 Sur 0 917.2 0.8 99
2020-01-16 11:00:00 6.9 22 Sur 41 Sur 0 917.1 0.6 100
2020-01-16 10:00:00 7.2 23 Sur 41 Sur 0.1 916.7 0.2 99
2020-01-16 09:00:00 7.4 22 Sur 33 Sur 0.1 916.4 -0.2 99
2020-01-16 08:00:00 7.2 15 Sudeste 33 Sur 0 916.5 -0.3 99
2020-01-16 07:00:00 7.5 16 Sur 32 Sur 0 916.5 -0.7 99
2020-01-16 06:00:00 7.6 16 Sur 32 Sur 0 916.6 -0.7 100
2020-01-16 05:00:00 7.1 14 Sudeste 26 Sur 0 916.8 -0.7 100
2020-01-16 04:00:00 7.1 18 Sur 30 Sur 0 917.2 -0.4 100
2020-01-16 03:00:00 7.3 22 Sur 30 Sur 0 917.3 -0.5 100
2020-01-16 02:00:00 7.1 12 Sur 24 Sudeste 0 917.5 -0.2 100
2020-01-16 01:00:00 7.3 15 Sur 24 Sur 0 917.6 -0.3 100
2020-01-16 00:00:00 7.3 17 Sur 22 Sur 0 917.8 0.2 100
2020-01-15 23:00:00 6.1 6 Sudeste 13 Sudeste 0.3 917.7 0.4 98
2020-01-15 22:00:00 6.2 7 Nordeste 9 Nordeste 0 917.9 1.1 93
2020-01-15 21:00:00 6.1 7 Sudeste 15 Sur 0 917.6 1.4 90
2020-01-15 20:00:00 6.7 14 Sur 24 Sudoeste 0 917.3 1.8 87
2020-01-15 19:00:00 7.4 18 Sur 26 Sur 0 916.8 1.5 85
2020-01-15 18:00:00 8.9 13 Sur 30 Sur 0 916.2 1.4 79
2020-01-15 17:00:00 9.8 21 Sur 37 Sur 0 915.5 0.7 78
2020-01-15 16:00:00 8.5 18 Sur 35 Sudoeste 0 915.3 0.3 84
2020-01-15 15:00:00 8.3 22 Sudoeste 33 Sudoeste 0 914.8 0.2 83
2020-01-15 14:00:00 8.2 8 Sudoeste 18 Sur 0 914.8 1 84
2020-01-15 13:00:00 7.8 4 Sur 9 Sur 0 915 2.3 86
2020-01-15 12:00:00 6.8 9 Sudoeste 22 Sudoeste 0 914.6 3.1 87
2020-01-15 11:00:00 6.2 15 Sudoeste 35 Oeste 0.5 913.8 3.1 92
2020-01-15 10:00:00 5.9 24 Sudoeste 37 Sur 1 912.7 2.4 99
2020-01-15 09:00:00 5.9 25 Sur 37 Sur 0 911.5 1.5 98
2020-01-15 08:00:00 5.8 28 Sur 41 Sur 0.1 910.7 0.9 99
2020-01-15 07:00:00 5.8 24 Sur 42 Sur 0.3 910.3 0.1 99
2020-01-15 06:00:00 5.8 30 Sur 46 Sudoeste 0 910 -0.8 99
2020-01-15 05:00:00 5.7 23 Sur 50 Sur 0.5 909.8 -1.2 99
2020-01-15 04:00:00 5.5 23 Sur 35 Sur 0.7 910.2 -1.1 99
2020-01-15 03:00:00 5 20 Sur 30 Sur 0.4 910.8 -0.8 99
2020-01-15 02:00:00 4.6 15 Sur 28 Sur 0.4 911 -0.7 99
2020-01-15 01:00:00 4.6 19 Sur 30 Sur 0.6 911.3 -0.7 98
2020-01-15 00:00:00 4.7 16 Sur 41 Sur 0 911.6 -0.3 98
2020-01-14 23:00:00 4.4 22 Sur 30 Sur 0 911.7 -0.3 97
2020-01-14 22:00:00 4.4 20 Sur 33 Sur 0 912 0.1 96
2020-01-14 21:00:00 4.7 22 Sur 33 Sur 0 911.9 0.3 91
2020-01-14 20:00:00 5 17 Sur 30 Sur 0 912 0.2 90
2020-01-14 19:00:00 5.2 12 Sudeste 28 Sur 0 911.9 0 89
2020-01-14 18:00:00 5.4 15 Sur 28 Sur 0 911.6 -0.5 88
2020-01-14 17:00:00 5.4 11 Sur 28 Sur 0 911.8 -1 91
2020-01-14 16:00:00 5 19 Sur 30 Sur 0 911.9 -1.9 94
2020-01-14 15:00:00 4.5 22 Sur 30 Sur 0 912.1 -2 99
2020-01-14 14:00:00 3.6 12 Sur 21 Sur 0 912.8 -1.3 99
2020-01-14 13:00:00 2.9 13 Sur 21 Sur 0 913.8 0 99
2020-01-14 12:00:00 2 8 Este 11 Este 0 914.1 0.5 99
2020-01-14 11:00:00 1.3 5 Nordeste 11 Nordeste 0 914.1 0.5 99
2020-01-14 10:00:00 0.7 7 Norte 11 Nordeste 0 913.8 0.3 99
2020-01-14 09:00:00 0.3 5 Nordeste 11 Nordeste 0 913.6 -0.3 99
2020-01-14 08:00:00 0.2 7 Nordeste 9 Nordeste 0 913.6 -0.3 99
2020-01-14 07:00:00 0 5 Nordeste 11 Norte 0 913.5 -0.7 99
2020-01-14 06:00:00 -0.2 5 Norte 9 Nordeste 0 913.9 -0.4 99
2020-01-14 05:00:00 -0.3 6 Nordeste 8 Nordeste 0 913.9 -0.8 99
2020-01-14 04:00:00 -0.7 5 Nordeste 8 Nordeste 0 914.2 -1 99
2020-01-14 03:00:00 -0.9 3 Norte 8 Nordeste 0 914.3 -1.2 99
2020-01-14 02:00:00 -1 4 Nordeste 8 Norte 0 914.7 -0.8 99
2020-01-14 01:00:00 -1.1 6 Norte 8 Norte 0 915.2 -0.6 99
2020-01-14 00:00:00 -1.3 3 Norte 11 Norte 0 915.5 -0.3 99
2020-01-13 23:00:00 -1.6 7 Nordeste 13 Nordeste 0 915.5 -0.4 99
2020-01-13 22:00:00 -1.6 6 Norte 11 Nordeste 0 915.8 0 99
2020-01-13 21:00:00 -1.6 8 Nordeste 11 Nordeste 0 915.8 0.3 99
2020-01-13 20:00:00 -1.6 7 Nordeste 11 Nordeste 0 915.9 0.2 99
2020-01-13 19:00:00 -1.6 7 Nordeste 9 Nordeste 0 915.8 0 99
2020-01-13 18:00:00 -1.6 7 Este 11 Este 0 915.5 -0.7 99
2020-01-13 17:00:00 -1.5 5 Este 11 Sur 0 915.7 -1.5 99
2020-01-13 16:00:00 -1.6 8 Sur 13 Sur 0 915.8 -2.3 99
2020-01-13 15:00:00 -2.2 9 Sudeste 15 Sudeste 0 916.2 -2.1 99
2020-01-13 14:00:00 -2.8 2 Este 13 Sudoeste 0 917.2 -2 99
2020-01-13 13:00:00 -3.7 5 Sudoeste 11 Sur 0 918.1 -0.8 99
2020-01-13 12:00:00 -4.2 8 Sur 11 Sudeste 0 918.3 -0.3 99
2020-01-13 11:00:00 -4.7 2 Sudeste 8 Nordeste 0 919.2 0.6 99
2020-01-13 10:00:00 -5.4 3 Oeste 8 Sudoeste 0 918.9 0.1 99
2020-01-13 09:00:00 -6 4 Sur 8 Sur 0 918.6 -0.4 95
2020-01-13 08:00:00 -5 2 Este 8 Sudeste 0 918.6 -0.7 93
2020-01-13 07:00:00 -5.6 0 Calma 8 Norte 0 918.8 -1.2 93
2020-01-13 06:00:00 -5.3 0 Calma 8 Sur 0 919 -1.2 94
2020-01-13 05:00:00 -5 5 Sur 9 Sur 0 919.3 -1.6 96
2020-01-13 04:00:00 -5.7 7 Sudoeste 9 Sudoeste 0 920 -2 94
2020-01-13 03:00:00 -4.8 2 Nordeste 5 Nordeste 0 920.2 -2.4 97
2020-01-13 02:00:00 -4.3 2 Este 9 Norte 0 920.9 -1.8 99
2020-01-13 01:00:00 -5.2 7 Norte -- -- 0 922 -0.8 99
2020-01-13 00:00:00 -4.7 0 Calma 4 Oeste 0 922.6 -0.9 99
2020-01-12 23:00:00 -3.8 3 Noroeste 8 Noroeste 0 922.7 -0.9 99
2020-01-12 22:00:00 -2.5 0 Calma 9 Norte 0 922.8 -0.8 99
2020-01-12 21:00:00 -1.8 6 Norte 9 Norte 0 923.5 0.1 99
2020-01-12 20:00:00 -1.3 3 Norte 9 Norte 0 923.6 0.3 99
2020-01-12 19:00:00 -0.9 5 Este 8 Este 0 923.6 0.2 99
2020-01-12 18:00:00 -0.4 2 Oeste 9 Sudoeste 0 923.4 0 98
2020-01-12 17:00:00 0.1 5 Sur 11 Sur 0 923.3 -0.8 98
2020-01-12 16:00:00 0.1 6 Sudoeste 11 Sur 0 923.4 -1.4 98
2020-01-12 15:00:00 0.1 4 Sur 9 Sur 0 923.4 -2.1 99
2020-01-12 14:00:00 -0.4 3 Sur 8 Sudeste 0 924.1 -1.3 99
2020-01-12 13:00:00 -1.6 4 Sur 9 Sur 0 924.8 -0.1 99
2020-01-12 12:00:00 -2 5 Sur 9 Sudeste 0 925.5 0.8 99
2020-01-12 11:00:00 -2 3 Sur 5 Sudeste 0 925.4 1 99
2020-01-12 10:00:00 -4.4 4 Norte 9 Norte 0 924.9 0.5 99
2020-01-12 09:00:00 -4.2 5 Nordeste 9 Nordeste 0 924.7 0.6 99
2020-01-12 08:00:00 -3.6 6 Norte 9 Nordeste 0 924.4 0.3 99
2020-01-12 07:00:00 -3.3 4 Nordeste 9 Nordeste 0 924.4 0.1 99
2020-01-12 06:00:00 -3.5 4 Sudeste 8 Sudeste 0 924.1 0.4 98
2020-01-12 05:00:00 -3.8 4 Sudeste 8 Sudeste 0 924.1 0.3 93
2020-01-12 04:00:00 -3.2 0 Calma 5 Este 0 924.3 0.2 90
2020-01-12 03:00:00 -2.6 0 Calma 5 Oeste 0 923.7 -0.5 91
2020-01-12 02:00:00 -2.5 4 Norte 9 Oeste 0 923.8 -0.6 90
2020-01-12 01:00:00 -1.9 3 Norte 9 Norte 0 924.1 -0.3 90
2020-01-12 00:00:00 -0.6 5 Nordeste 11 Noroeste 0 924.2 -0.1 89
2020-01-11 23:00:00 -0.5 4 Sudoeste 9 Noroeste 0 924.4 0 88
2020-01-11 22:00:00 0 8 Oeste 9 Noroeste 0 924.4 0.1 85
2020-01-11 21:00:00 -- 8 Noroeste 13 Oeste 0 924.3 0.4 --
2020-01-11 20:00:00 2 -- -- -- -- 0 924.4 0.5 78
2020-01-11 19:00:00 -- -- -- -- -- 0 924.3 0.5 --
2020-01-11 18:00:00 6.2 10 Sudoeste 15 Sudoeste 0 923.9 -0.1 65
2020-01-11 17:00:00 7.1 11 Sudoeste 15 Sudoeste 0 923.9 -0.6 63
2020-01-11 16:00:00 6.8 12 Sudoeste 17 Sudoeste 0 923.8 -1.7 65
2020-01-11 15:00:00 6.8 11 Sur 18 Sudoeste 0 924 -2.3 66
2020-01-11 14:00:00 5.9 10 Sur 15 Sudoeste 0 924.5 -1.7 71
2020-01-11 13:00:00 5 10 Sudoeste 15 Sudoeste 0 925.5 -0.2 74
2020-01-11 12:00:00 4.1 6 Sudeste 11 Sudeste 0 926.3 0.8 75
2020-01-11 11:00:00 1.1 3 Este 9 Sudeste 0 926.2 0.7 84
2020-01-11 10:00:00 -2.1 3 Norte 9 Noroeste 0 925.7 0.2 93
2020-01-11 09:00:00 -3.9 5 Noroeste -- -- 0 925.5 -0.1 91
2020-01-11 08:00:00 -3.6 0 Calma 5 Sudeste 0 925.5 0 92
2020-01-11 07:00:00 -3.5 8 Norte 9 Norte 0 925.5 -0.2 91
2020-01-11 06:00:00 -3.1 4 Noroeste 9 Noroeste 0 925.6 -0.1 91
2020-01-11 05:00:00 -2.7 7 Noroeste 9 Noroeste 0 925.5 -0.3 90
2020-01-11 04:00:00 -1.9 2 Norte 9 Noroeste 0 925.7 -0.4 90
2020-01-11 03:00:00 -1.9 8 Noroeste 11 Noroeste 0 925.7 -0.4 88
2020-01-11 02:00:00 -1.5 8 Norte 13 Norte 0 925.8 -0.2 86
2020-01-11 01:00:00 -0.9 6 Norte 15 Norte 0 926.1 0.4 86
2020-01-11 00:00:00 -1.6 11 Norte 15 Norte 0 926.1 0.5 87
2020-01-10 23:00:00 -0.1 4 Nordeste 15 Norte 0 926 0.7 82
2020-01-10 22:00:00 -0.3 11 Norte 15 Norte 0 925.7 1 80
2020-01-10 21:00:00 1.4 11 Norte 13 Norte 0 925.6 1.1 77
2020-01-10 20:00:00 1 10 Norte 15 Norte 0 925.3 1 76
2020-01-10 19:00:00 2.6 11 Norte 15 Norte 0 924.7 0.8 72
2020-01-10 18:00:00 5.8 10 Norte 18 Norte 0 924.5 0.9 64
2020-01-10 17:00:00 6.9 12 Norte 21 Nordeste 0 924.3 0.4 60
2020-01-10 16:00:00 8 12 Norte 22 Norte 0 923.9 -0.3 54
2020-01-10 15:00:00 7.3 9 Norte 22 Norte 0 923.6 -1 57
2020-01-10 14:00:00 6.3 4 Este 18 Sudeste 0 923.9 -0.3 63
2020-01-10 13:00:00 6.1 6 Nordeste 15 Norte 0 924.2 0.9 66
2020-01-10 12:00:00 5.1 9 Nordeste 17 Nordeste 0 924.6 1.8 71
2020-01-10 11:00:00 3.1 5 Noroeste 15 Oeste 0 924.2 1.6 76
2020-01-10 10:00:00 0.8 4 Sur 18 Noroeste 0 923.3 1.2 82
2020-01-10 09:00:00 -0.6 9 Oeste 15 Noroeste 0 922.8 1.3 88
2020-01-10 08:00:00 -0.6 10 Oeste 17 Oeste 0 922.6 1.4 84
2020-01-10 07:00:00 -0.8 11 Oeste 13 Noroeste 0 922.1 1 90
2020-01-10 06:00:00 -0.6 8 Oeste 15 Oeste 0 921.5 0.7 88
2020-01-10 05:00:00 -0.6 11 Oeste 17 Oeste 0 921.2 0.7 91
2020-01-10 04:00:00 0.2 14 Oeste 18 Oeste 0 921.1 0.4 90
2020-01-10 03:00:00 0.7 15 Oeste 24 Oeste 0 920.8 0.3 89
2020-01-10 02:00:00 0.7 14 Oeste 22 Oeste 0 920.5 0.2 87
2020-01-10 01:00:00 1 15 Oeste 24 Oeste 0 920.7 1.2 86
2020-01-10 00:00:00 2.3 16 Oeste 30 Oeste 0 920.5 1.8 78
2020-01-09 23:00:00 3.4 17 Noroeste 46 Noroeste 0 920.3 2.1 65
2020-01-09 22:00:00 2.3 31 Oeste 46 Oeste 0 919.5 1.5 80
2020-01-09 21:00:00 3.2 20 Oeste 26 Oeste 0 918.7 1.1 82
2020-01-09 20:00:00 4.6 12 Oeste 33 Oeste 0 918.2 0.7 77
2020-01-09 19:00:00 5.8 25 Oeste 52 Oeste 0 918 1.5 74
2020-01-09 18:00:00 7.3 30 Oeste 52 Oeste 0 917.6 0.9 74
2020-01-09 17:00:00 7.3 10 Sudoeste 18 Sudeste 0.4 917.5 0.3 87
2020-01-09 16:00:00 7.1 9 Sudeste 13 Sudeste 0 916.5 -2.1 79
2020-01-09 15:00:00 6.7 6 Este 18 Sudeste 0 916.7 -2.9 78
2020-01-09 14:00:00 7.3 12 Sudeste 18 Sudeste 0 917.2 -3 72
2020-01-09 13:00:00 7 8 Este 15 Este 0 918.6 -1.2 71
2020-01-09 12:00:00 7 8 Este 13 Sudeste 0 919.6 -0.1 68
2020-01-09 11:00:00 4.1 3 Este 9 Sur 0 920.2 0.6 73
2020-01-09 10:00:00 2.6 2 Norte 9 Sudoeste 0 919.8 -0.2 77
2020-01-09 09:00:00 1.6 2 Sudoeste 8 Sur 0 919.7 -0.2 83
2020-01-09 08:00:00 2.7 4 Este 9 Sudeste 0 919.6 -0.7 78
2020-01-09 07:00:00 1.9 5 Oeste 8 Sudeste 0 920 -0.6 86
2020-01-09 06:00:00 1.3 3 Sudoeste 9 Norte 0 919.9 -1.2 90
2020-01-09 05:00:00 0.8 7 Noroeste 13 Norte 0 920.3 -1 85
2020-01-09 04:00:00 1.5 8 Norte 11 Norte 0 920.6 -1 79
2020-01-09 03:00:00 0.7 6 Noroeste 8 Noroeste 0 921.1 -0.9 77
2020-01-09 02:00:00 1.3 0 Calma 5 Sur 0 921.3 -1 70
2020-01-09 01:00:00 1.2 5 Sudoeste 8 Oeste 0 921.6 -0.8 74
2020-01-09 00:00:00 2.2 4 Sudoeste 5 Sudoeste 0 922 -0.3 66
2020-01-08 23:00:00 2.9 -- -- -- -- 0 922.3 -0.1 66
2020-01-08 22:00:00 3.4 0 Calma 5 Noroeste 0 922.4 0 62
2020-01-08 21:00:00 3.8 4 Noroeste 11 Noroeste 0 922.3 -0.2 62
2020-01-08 20:00:00 5.1 6 Oeste 11 Noroeste 0 922.4 -0.1 59
2020-01-08 19:00:00 -- -- -- -- -- 0 922.4 -0.3 --
2020-01-08 18:00:00 10.6 7 Sudoeste 9 Sudoeste 0 922.5 -0.4 43
2020-01-08 17:00:00 12.9 7 Sudoeste 11 Sur 0 922.5 -0.9 38
2020-01-08 16:00:00 13.5 6 Sur 13 Sur 0 922.7 -1.5 34
2020-01-08 15:00:00 12.9 6 Sudeste 11 Sudeste 0 922.9 -1.9 38
2020-01-08 14:00:00 12.2 7 Sudeste 13 Sudeste 0 923.4 -1.6 40
2020-01-08 13:00:00 10.5 7 Sudeste 11 Sudeste 0 924.2 -0.5 42
2020-01-08 12:00:00 7.9 4 Este 8 Este 0 924.8 0.3 55
2020-01-08 11:00:00 4.9 5 Este 8 Nordeste 0 925 0.6 74
2020-01-08 10:00:00 0.3 2 Noroeste 13 Norte 0 924.7 0.5 86
2020-01-08 09:00:00 -0.9 2 Nordeste 8 Oeste 0 924.5 0 84
2020-01-08 08:00:00 -0.4 8 Sudoeste 11 Noroeste 0 924.4 -0.2 86
2020-01-08 07:00:00 -2.3 5 Nordeste 5 Nordeste 0 924.2 -0.7 89
2020-01-08 06:00:00 -1.7 4 Sudoeste -- -- 0 924.5 -0.2 91
2020-01-08 05:00:00 -2.3 5 Noroeste 8 Noroeste 0 924.6 -0.3 91
2020-01-08 04:00:00 -2.1 4 Norte 9 Norte 0 924.9 0 93
2020-01-08 03:00:00 -1.5 0 Calma 4 Noroeste 0 924.7 -0.5 91
2020-01-08 02:00:00 -0.5 4 Sudeste 8 Sudeste 0 924.9 -0.5 88
2020-01-08 01:00:00 0.5 4 Este 9 Noroeste 0 924.9 -0.6 90
2020-01-08 00:00:00 -0.1 0 Calma 5 Este 0 925.2 -0.3 91
2020-01-07 23:00:00 -0.1 3 Noroeste 4 Norte 0 925.4 0 91
2020-01-07 22:00:00 0.3 0 Calma 5 Norte 0 925.5 0.3 90
2020-01-07 21:00:00 0.2 8 Noroeste 9 Noroeste 0 925.5 0.5 87
2020-01-07 20:00:00 1.3 2 Sur 4 Sur 0 925.4 0.5 86
2020-01-07 19:00:00 2.3 0 Calma 5 Sudeste 0 925.2 0.4 79
2020-01-07 18:00:00 5.9 4 Sudeste 13 Sudeste 0 925 0.1 72
2020-01-07 17:00:00 8.7 9 Sudeste 13 Sudeste 0 924.9 -0.6 62
2020-01-07 16:00:00 9.4 9 Sudeste 13 Sudeste 0 924.8 -1.3 59
2020-01-07 15:00:00 8.9 9 Sur 13 Sur 0 924.9 -1.9 57
2020-01-07 14:00:00 7.6 10 Sur 13 Sur 0 925.5 -1.5 64
2020-01-07 13:00:00 6 7 Sur 11 Sur 0 926.1 -0.3 70
2020-01-07 12:00:00 3 3 Sur 5 Sudeste 0 926.8 0.8 80
2020-01-07 11:00:00 0.4 4 Nordeste 5 Este 0 927 1.6 91
2020-01-07 10:00:00 -2.5 -- -- -- -- 0 926.4 1.1 97
2020-01-07 09:00:00 -4.2 3 Sudoeste 5 Norte 0 926 0.6 95
2020-01-07 08:00:00 -4.2 4 Norte 8 Norte 0 925.4 -0.3 96
2020-01-07 07:00:00 -4.4 4 Noroeste 5 Norte 0 925.3 -0.4 98
2020-01-07 06:00:00 -4.1 5 Oeste 8 Oeste 0 925.4 -0.3 99
2020-01-07 05:00:00 -4.1 6 Oeste 8 Sudoeste 0 925.7 0.2 99
2020-01-07 04:00:00 -3.8 0 Calma 5 Oeste 0 925.7 -0.1 99
2020-01-07 03:00:00 -3.6 4 Oeste 5 Oeste 0 925.7 0.1 99
2020-01-07 02:00:00 -3.2 5 Oeste 9 Oeste 0 925.5 0.1 99
2020-01-07 01:00:00 -2.4 6 Sudoeste 9 Sudoeste 0 925.8 0.7 99
2020-01-07 00:00:00 -1.9 0 Calma 9 Norte 0 925.6 1 99
2020-01-06 23:00:00 -1.1 5 Norte 11 Norte 0 925.4 1.2 99
2020-01-06 22:00:00 -1.3 4 Este 9 Este 0 925.1 1.1 99
2020-01-06 21:00:00 -1.4 3 Sudeste 9 Sur 0 924.6 1.2 99
2020-01-06 20:00:00 -1.1 5 Oeste 9 Oeste 0 924.2 1.4 98
2020-01-06 19:00:00 -0.2 0 Calma 9 Este 0 924 1.7 96
2020-01-06 18:00:00 0.7 6 Sur 13 Sur 0 923.4 1.4 88
2020-01-06 17:00:00 1.5 5 Sudeste 13 Sudeste 0 922.8 0.3 86
2020-01-06 16:00:00 1.2 6 Sudeste 13 Sur 0 922.3 -0.9 90
2020-01-06 15:00:00 0 8 Sur 13 Sur 0 922 -1.6 98
2020-01-06 14:00:00 -0.7 5 Sur 9 Sudoeste 0 922.5 -1 98
2020-01-06 13:00:00 -1.6 7 Sudoeste 11 Sur 0 923.2 -0.1 98
2020-01-06 12:00:00 -3 5 Sur 9 Sur 0 923.6 0.7 98
2020-01-06 11:00:00 -4.3 4 Sur 5 Sudeste 0 923.5 1.4 98
2020-01-06 10:00:00 -5 4 Sudeste 5 Sudeste 0 923.3 1.4 98